Time;durP1;ratioP1;P1;durP2;ratioP2;P2;SDS_P1;SDS_P2;PMS_P1;PMS_P2;Temp;Humidity;BMP_temperature;BMP_pressure;BME280_temperature;BME280_humidity;BME280_pressure;Samples;Min_cycle;Max_cycle;Signal;HPM_P1;HPM_P2
2024/02/13 09:38:50;;;;;;;17.05;4.57;;;;;;;7.63;100.00;101572.25;5416005;22;20134;-73
2024/02/13 09:41:17;;;;;;;17.77;4.53;;;;;;;7.97;100.00;101565.28;5070174;28;20047;-71
2024/02/13 09:43:42;;;;;;;16.42;4.40;;;;;;;7.87;100.00;101565.88;5092726;28;20060;-72
2024/02/13 09:46:09;;;;;;;17.83;4.45;;;;;;;7.75;100.00;101561.19;5092343;28;20051;-73
2024/02/13 09:48:37;;;;;;;17.98;4.30;;;;;;;7.87;100.00;101564.13;5092829;28;20486;-72
2024/02/13 09:51:08;;;;;;;18.98;4.78;;;;;;;7.93;100.00;101561.66;5092382;28;20120;-70
2024/02/13 09:53:40;;;;;;;18.05;4.40;;;;;;;7.99;100.00;101567.13;5092949;28;20382;-70
2024/02/13 09:56:06;;;;;;;19.33;5.05;;;;;;;8.07;100.00;101576.91;5092749;28;20031;-71
2024/02/13 09:58:32;;;;;;;18.38;4.80;;;;;;;8.23;100.00;101565.97;5094141;28;20473;-71
2024/02/13 10:00:59;;;;;;;15.90;4.20;;;;;;;8.38;100.00;101570.72;5096709;28;20104;-70
2024/02/13 10:03:25;;;;;;;17.50;4.40;;;;;;;8.48;100.00;101561.34;5096540;28;20024;-72
2024/02/13 10:05:50;;;;;;;15.85;4.22;;;;;;;8.68;100.00;101572.38;5096843;28;20024;-70
2024/02/13 10:08:17;;;;;;;17.45;4.60;;;;;;;8.73;100.00;101562.81;5096581;28;20115;-73
2024/02/13 10:10:44;;;;;;;17.05;4.40;;;;;;;8.87;100.00;101569.28;5096717;28;20046;-73
2024/02/13 10:13:12;;;;;;;16.95;4.40;;;;;;;8.74;100.00;101559.31;5096503;28;20458;-84
2024/02/13 10:15:42;;;;;;;17.65;4.20;;;;;;;8.68;100.00;101565.34;5096337;28;20039;-84
2024/02/13 10:18:12;;;;;;;17.00;4.30;;;;;;;8.79;100.00;101564.69;5096304;28;20055;-84
2024/02/13 10:20:40;;;;;;;15.85;4.15;;;;;;;9.30;100.00;101571.97;5096270;28;20047;-70
2024/02/13 10:23:06;;;;;;;16.70;4.40;;;;;;;9.52;100.00;101570.69;5096257;28;20032;-70
2024/02/13 10:25:33;;;;;;;17.58;4.30;;;;;;;9.80;100.00;101555.38;5096111;28;20028;-70
2024/02/13 10:28:03;;;;;;;17.13;4.15;;;;;;;9.77;100.00;101558.84;5096277;28;20071;-70
2024/02/13 10:30:32;;;;;;;15.95;4.00;;;;;;;10.03;100.00;101560.19;5095976;28;20032;-70
2024/02/13 10:33:06;;;;;;;18.35;4.25;;;;;;;10.34;100.00;101551.06;5095948;28;20039;-70
2024/02/13 10:35:32;;;;;;;15.98;4.00;;;;;;;10.77;100.00;101554.38;5096023;28;20028;-73
2024/02/13 10:37:57;;;;;;;18.25;4.05;;;;;;;10.92;100.00;101558.09;5091717;28;20458;-70
2024/02/13 10:40:27;;;;;;;17.40;3.90;;;;;;;11.23;100.00;101546.19;5087587;28;20527;-71
2024/02/13 10:42:57;;;;;;;16.10;3.90;;;;;;;10.88;100.00;101553.63;5084772;28;20079;-85
2024/02/13 10:45:30;;;;;;;15.07;3.90;;;;;;;10.86;100.00;101563.31;5088312;28;20532;-85
2024/02/13 10:48:37;;;;;;;15.57;4.03;;;;;;;11.21;100.00;101562.91;5085282;28;20113;-85
2024/02/13 10:51:03;;;;;;;16.70;3.90;;;;;;;10.56;100.00;101562.00;5055483;28;20528;-84
2024/02/13 10:53:32;;;;;;;17.20;4.00;;;;;;;10.01;100.00;101562.78;5068782;28;20044;-84
2024/02/13 10:55:58;;;;;;;16.33;4.07;;;;;;;9.85;100.00;101558.09;5084803;28;20071;-84
2024/02/13 10:58:29;;;;;;;16.45;4.00;;;;;;;9.65;100.00;101563.88;5087425;28;20028;-74
2024/02/13 11:00:55;;;;;;;14.98;3.75;;;;;;;10.03;100.00;101576.94;5084619;28;20029;-72
2024/02/13 11:03:22;;;;;;;14.95;4.05;;;;;;;10.27;100.00;101571.19;5087728;28;20111;-69
2024/02/13 11:05:48;;;;;;;16.17;4.10;;;;;;;10.23;100.00;101569.34;5065771;28;20037;-77
2024/02/13 11:08:14;;;;;;;15.60;3.75;;;;;;;9.84;100.00;101572.16;5086480;28;20028;-74
2024/02/13 11:10:41;;;;;;;15.38;3.58;;;;;;;9.68;100.00;101566.56;5086927;28;20063;-78
2024/02/13 11:13:09;;;;;;;16.35;3.70;;;;;;;9.60;100.00;101571.72;5085105;28;20035;-79
2024/02/13 11:15:41;;;;;;;16.33;3.85;;;;;;;9.55;100.00;101570.75;5085570;28;20032;-80
2024/02/13 11:18:13;;;;;;;14.95;3.72;;;;;;;9.32;100.00;101579.91;5084833;28;20034;-76
2024/02/13 11:20:43;;;;;;;17.42;3.95;;;;;;;9.21;100.00;101569.16;5053665;28;20032;-76
2024/02/13 11:23:13;;;;;;;16.33;4.00;;;;;;;9.16;100.00;101573.41;5083297;28;20036;-70
2024/02/13 11:25:42;;;;;;;15.02;3.72;;;;;;;9.09;100.00;101577.69;5082547;28;20028;-78
2024/02/13 11:28:10;;;;;;;16.30;3.65;;;;;;;9.06;100.00;101567.94;5085475;28;20423;-75
2024/02/13 11:30:38;;;;;;;14.82;3.70;;;;;;;9.04;100.00;101558.22;5084213;28;20024;-71
2024/02/13 11:33:08;;;;;;;14.80;3.58;;;;;;;9.19;100.00;101563.84;5086359;28;20031;-69
2024/02/13 11:35:44;;;;;;;16.60;3.90;;;;;;;9.42;100.00;101568.69;5083891;28;20036;-70
2024/02/13 11:38:16;;;;;;;18.25;3.97;;;;;;;9.57;100.00;101560.22;5084572;28;20085;-70
2024/02/13 11:40:42;;;;;;;14.18;3.60;;;;;;;9.70;100.00;101562.22;5084534;28;20029;-74
2024/02/13 11:43:24;;;;;;;15.73;3.90;;;;;;;9.75;100.00;101559.66;5085071;28;20032;-71
2024/02/13 11:45:50;;;;;;;15.80;3.95;;;;;;;9.63;100.00;101559.44;5085564;28;20024;-71
2024/02/13 11:48:28;;;;;;;13.82;3.40;;;;;;;9.74;100.00;101574.63;5083672;28;20028;-70
2024/02/13 11:50:55;;;;;;;14.13;3.42;;;;;;;9.86;100.00;101568.69;5085977;28;20019;-70
2024/02/13 11:53:24;;;;;;;16.52;3.85;;;;;;;10.05;100.00;101566.41;5083250;28;20020;-70
2024/02/13 11:55:57;;;;;;;12.65;3.30;;;;;;;10.03;100.00;101565.47;5067788;28;20043;-72
2024/02/13 11:58:22;;;;;;;;;;;;;;;10.46;100.00;101559.19;5083030;28;20024;-70
2024/02/13 12:01:05;;;;;;;12.65;3.20;;;;;;;10.52;100.00;101560.16;5084893;28;19920;-71
2024/02/13 12:03:33;;;;;;;11.88;2.92;;;;;;;10.60;100.00;101551.50;5082988;28;20366;-71
2024/02/13 12:06:05;;;;;;;11.90;3.00;;;;;;;10.73;100.00;101559.59;5086026;28;20055;-70
2024/02/13 12:08:32;;;;;;;10.90;2.75;;;;;;;10.70;100.00;101549.84;5068238;28;20039;-70
2024/02/13 12:11:00;;;;;;;11.57;2.60;;;;;;;10.57;100.00;101547.91;5082282;28;20044;-70
2024/02/13 12:13:26;;;;;;;9.93;2.60;;;;;;;10.42;100.00;101549.44;5082507;28;20094;-74
2024/02/13 12:15:53;;;;;;;12.00;2.80;;;;;;;10.31;100.00;101545.72;5085110;28;20024;-70
2024/02/13 12:18:18;;;;;;;10.95;2.60;;;;;;;10.33;100.00;101545.72;5065340;28;20039;-70
2024/02/13 12:20:49;;;;;;;11.73;2.72;;;;;;;10.49;100.00;101547.78;5084106;28;20029;-69
2024/02/13 12:23:16;;;;;;;12.20;2.70;;;;;;;10.62;100.00;101548.88;5083245;28;20082;-69
2024/02/13 12:25:42;;;;;;;11.10;2.70;;;;;;;10.77;100.00;101553.50;5083682;28;20027;-69
2024/02/13 12:28:12;;;;;;;15.30;3.20;;;;;;;11.11;100.00;101540.72;5084317;28;20035;-70
2024/02/13 12:30:39;;;;;;;13.52;2.90;;;;;;;11.56;100.00;101536.00;5082799;28;20082;-70
2024/02/13 12:33:06;;;;;;;8.85;2.65;;;;;;;11.59;100.00;101554.56;5067249;28;20412;-70
2024/02/13 12:35:36;;;;;;;10.75;2.70;;;;;;;11.58;100.00;101550.16;5082876;28;20420;-69
2024/02/13 12:38:12;;;;;;;12.10;2.95;;;;;;;11.86;100.00;101541.59;5085241;28;20115;-80
2024/02/13 12:40:42;;;;;;;8.38;2.30;;;;;;;11.89;100.00;101538.09;5082912;28;20498;-84
2024/02/13 12:43:08;;;;;;;9.07;2.58;;;;;;;11.53;100.00;101542.13;5084690;28;20023;-85
2024/02/13 12:45:41;;;;;;;10.50;2.55;;;;;;;11.48;100.00;101546.50;5082499;28;20123;-85
2024/02/13 12:48:10;;;;;;;9.98;2.63;;;;;;;11.39;100.00;101544.63;5082746;28;20029;-84
2024/02/13 12:50:36;;;;;;;9.23;2.38;;;;;;;11.67;100.00;101543.19;5084730;28;20032;-85
2024/02/13 12:53:03;;;;;;;10.70;2.50;;;;;;;11.65;100.00;101538.75;5083040;28;20040;-78
2024/02/13 12:55:29;;;;;;;7.50;2.30;;;;;;;11.93;100.00;101520.50;5086148;28;20028;-81
2024/02/13 12:57:55;;;;;;;8.25;2.50;;;;;;;12.40;100.00;101529.75;5067599;28;20063;-85
2024/02/13 13:00:22;;;;;;;8.70;2.50;;;;;;;12.18;100.00;101541.06;5086236;28;20490;-85
2024/02/13 13:02:48;;;;;;;7.00;2.30;;;;;;;12.43;100.00;101533.31;5083539;28;20099;-78
2024/02/13 13:05:14;;;;;;;11.30;2.58;;;;;;;12.61;100.00;101524.63;5065886;28;20154;-85
2024/02/13 13:07:42;;;;;;;11.40;2.50;;;;;;;13.02;100.00;101523.97;5085089;28;20028;-84
2024/02/13 13:10:13;;;;;;;11.82;2.53;;;;;;;12.95;100.00;101529.25;5084040;28;20028;-78
2024/02/13 13:12:39;;;;;;;10.18;2.70;;;;;;;12.75;100.00;101527.34;5084213;28;20474;-82
2024/02/13 13:15:06;;;;;;;10.70;2.60;;;;;;;12.25;100.00;101526.09;5064194;28;20118;-74
2024/02/13 13:17:32;;;;;;;10.07;2.45;;;;;;;12.64;100.00;101513.13;5082510;28;20028;-75
2024/02/13 13:19:59;;;;;;;10.00;2.50;;;;;;;12.74;100.00;101522.91;5067150;28;20363;-72
2024/02/13 13:22:26;;;;;;;11.40;2.45;;;;;;;13.05;100.00;101510.72;5081369;28;20544;-70
2024/02/13 13:24:51;;;;;;;11.85;2.40;;;;;;;13.12;100.00;101518.69;5081592;28;20040;-75
2024/02/13 13:27:20;;;;;;;11.15;2.53;;;;;;;12.45;100.00;101513.00;5066106;28;20032;-76
2024/02/13 13:29:46;;;;;;;10.73;2.65;;;;;;;12.01;100.00;101513.53;5064859;28;20359;-72
2024/02/13 13:32:11;;;;;;;8.32;2.55;;;;;;;11.74;100.00;101512.38;5081305;28;20036;-85
2024/02/13 13:34:37;;;;;;;8.52;2.70;;;;;;;11.76;100.00;101512.38;5063215;28;20040;-84
2024/02/13 13:37:02;;;;;;;8.38;2.50;;;;;;;11.48;100.00;101510.31;5084048;28;20025;-80
2024/02/13 13:39:31;;;;;;;8.45;2.60;;;;;;;11.27;100.00;101516.25;5081070;28;20177;-69
2024/02/13 13:42:07;;;;;;;11.95;2.70;;;;;;;11.12;100.00;101514.28;5081221;28;20032;-70
2024/02/13 13:44:34;;;;;;;8.07;2.58;;;;;;;11.03;100.00;101505.38;5081508;28;20032;-69
2024/02/13 13:46:59;;;;;;;7.05;2.40;;;;;;;10.99;100.00;101507.97;5084637;28;20054;-72
2024/02/13 13:49:24;;;;;;;7.80;2.50;;;;;;;11.19;100.00;101507.31;5084690;28;20032;-69
2024/02/13 13:51:50;;;;;;;9.50;2.53;;;;;;;11.42;100.00;101504.97;5081817;28;20538;-73
2024/02/13 13:54:15;;;;;;;8.55;2.50;;;;;;;11.47;100.00;101503.22;5083401;28;20487;-69
2024/02/13 13:56:40;;;;;;;9.40;2.40;;;;;;;12.17;100.00;101507.50;5065014;28;20024;-76
2024/02/13 13:59:07;;;;;;;10.52;2.60;;;;;;;11.96;100.00;101502.00;5085045;28;20029;-69
2024/02/13 14:01:33;;;;;;;8.60;2.38;;;;;;;11.58;100.00;101497.19;5080989;28;20028;-73
2024/02/13 14:03:59;;;;;;;7.00;2.40;;;;;;;11.38;100.00;101508.44;5066088;28;20040;-72
2024/02/13 14:06:24;;;;;;;10.13;2.60;;;;;;;11.34;100.00;101496.03;5081142;28;20036;-73
2024/02/13 14:08:49;;;;;;;10.70;2.50;;;;;;;11.26;100.00;101492.44;5083487;28;20391;-71
2024/02/13 14:11:17;;;;;;;9.07;2.58;;;;;;;11.15;100.00;101492.28;5064262;28;20077;-85
2024/02/13 14:13:42;;;;;;;7.80;2.40;;;;;;;10.93;100.00;101499.06;5082306;28;20021;-85
2024/02/13 14:16:09;;;;;;;8.95;2.50;;;;;;;10.89;100.00;101494.59;5084850;28;20502;-84
2024/02/13 14:18:34;;;;;;;9.38;2.50;;;;;;;10.69;100.00;101505.78;5083740;28;20028;-84
2024/02/13 14:21:00;;;;;;;10.73;2.55;;;;;;;10.46;100.00;101502.81;5080665;28;20035;-75
2024/02/13 14:23:27;;;;;;;9.48;2.42;;;;;;;10.28;100.00;101498.97;5084079;28;20028;-79
2024/02/13 14:25:52;;;;;;;9.73;2.30;;;;;;;10.09;100.00;101500.44;5081335;28;20055;-77
2024/02/13 14:28:18;;;;;;;7.97;2.33;;;;;;;10.12;100.00;101505.75;5083184;28;20029;-69
2024/02/13 14:30:44;;;;;;;8.25;2.40;;;;;;;10.15;100.00;101493.47;5082561;28;20040;-79
2024/02/13 14:33:11;;;;;;;9.25;2.42;;;;;;;10.06;100.00;101492.47;5081767;28;20437;-79
2024/02/13 14:35:37;;;;;;;11.15;2.40;;;;;;;10.10;100.00;101493.38;5083260;28;20110;-79
2024/02/13 14:38:03;;;;;;;10.75;2.50;;;;;;;10.16;100.00;101487.31;5080581;28;20032;-79
2024/02/13 14:40:30;;;;;;;11.00;2.63;;;;;;;10.35;100.00;101494.69;5084055;28;20085;-79
2024/02/13 14:42:56;;;;;;;8.10;2.70;;;;;;;10.55;100.00;101491.47;5080734;28;20025;-79
2024/02/13 14:45:21;;;;;;;12.88;2.60;;;;;;;10.63;100.00;101493.38;5085716;28;20381;-78
2024/02/13 14:47:48;;;;;;;11.23;2.67;;;;;;;10.69;100.00;101489.94;5085768;28;20482;-79
2024/02/13 14:50:14;;;;;;;10.57;2.80;;;;;;;10.75;100.00;101487.34;5086052;28;20044;-78
2024/02/13 14:52:41;;;;;;;12.38;2.80;;;;;;;10.69;100.00;101489.00;5086364;28;20032;-78
2024/02/13 14:55:09;;;;;;;12.10;2.88;;;;;;;10.56;100.00;101485.34;5084571;28;20016;-78
2024/02/13 14:57:35;;;;;;;8.80;2.50;;;;;;;10.36;100.00;101482.38;5087230;28;20126;-79
2024/02/13 15:00:02;;;;;;;11.15;2.90;;;;;;;10.21;100.00;101478.59;5083961;28;20479;-74
2024/02/13 15:02:29;;;;;;;10.77;2.60;;;;;;;10.23;100.00;101483.91;5083547;28;20032;-73
2024/02/13 15:04:55;;;;;;;10.15;2.80;;;;;;;10.17;100.00;101482.06;5084788;28;20032;-74
2024/02/13 15:07:21;;;;;;;6.80;2.40;;;;;;;10.12;100.00;101495.19;5086797;28;20529;-72
2024/02/13 15:09:51;;;;;;;13.25;2.50;;;;;;;10.03;100.00;101491.50;5085010;28;20043;-79
2024/02/13 15:12:20;;;;;;;12.00;2.60;;;;;;;9.93;100.00;101490.44;5086054;28;20029;-79
2024/02/13 15:14:45;;;;;;;9.05;2.50;;;;;;;9.86;100.00;101476.25;5085522;28;20035;-79
2024/02/13 15:17:13;;;;;;;10.57;2.60;;;;;;;9.74;100.00;101482.22;5084779;28;20103;-74
2024/02/13 15:19:40;;;;;;;10.93;2.50;;;;;;;9.65;100.00;101484.69;5085904;28;20480;-76
2024/02/13 15:22:08;;;;;;;7.90;2.40;;;;;;;9.56;100.00;101487.16;5084034;28;20020;-70
2024/02/13 15:24:33;;;;;;;8.30;2.50;;;;;;;9.55;100.00;101488.00;5086325;28;20032;-76
2024/02/13 15:26:58;;;;;;;7.43;2.45;;;;;;;9.45;100.00;101480.78;5083158;28;20506;-74
2024/02/13 15:29:25;;;;;;;7.88;2.55;;;;;;;9.47;100.00;101489.63;5068677;28;20374;-70
2024/02/13 15:31:50;;;;;;;12.95;2.90;;;;;;;9.47;100.00;101485.22;5083986;28;20497;-72
2024/02/13 15:34:16;;;;;;;10.88;2.90;;;;;;;9.50;100.00;101487.06;5085290;28;20050;-69
2024/02/13 15:37:09;;;;;;;13.05;2.90;;;;;;;9.50;100.00;101485.28;5084939;28;20039;-70
2024/02/13 15:47:51;;;;;;;14.48;2.95;;;;;;;9.38;100.00;101472.75;5083921;28;20042;-69
2024/02/13 15:50:18;;;;;;;11.15;3.10;;;;;;;9.39;100.00;101471.00;5086889;28;20455;-78
2024/02/13 15:52:48;;;;;;;13.07;3.05;;;;;;;9.34;100.00;101470.03;5066677;28;20026;-74
2024/02/13 15:55:18;;;;;;;11.75;2.95;;;;;;;9.31;100.00;101470.84;5084066;28;20060;-77
2024/02/13 15:57:44;;;;;;;11.45;3.10;;;;;;;9.28;100.00;101472.56;5083576;28;20060;-79
2024/02/13 16:00:17;;;;;;;13.07;3.30;;;;;;;9.25;100.00;101468.09;5066615;28;20028;-86
2024/02/13 16:02:43;;;;;;;11.60;3.10;;;;;;;9.21;100.00;101476.81;5085365;28;20396;-85
2024/02/13 16:05:11;;;;;;;9.82;2.90;;;;;;;9.18;100.00;101468.84;5083597;28;20029;-85
2024/02/13 16:07:39;;;;;;;11.77;3.20;;;;;;;9.14;100.00;101482.81;5085256;28;20115;-89
2024/02/13 16:10:06;;;;;;;9.73;3.28;;;;;;;9.06;100.00;101473.00;5083416;28;20111;-86
2024/02/13 16:12:33;;;;;;;12.57;3.20;;;;;;;9.08;100.00;101470.38;5086256;28;20025;-85
2024/02/13 16:14:58;;;;;;;12.20;3.40;;;;;;;9.04;100.00;101474.72;5082542;28;20043;-89
2024/02/13 16:17:23;;;;;;;14.07;3.50;;;;;;;9.04;100.00;101469.47;5067473;28;20040;-87
2024/02/13 16:19:49;;;;;;;15.52;3.50;;;;;;;8.97;100.00;101470.19;5083601;28;20032;-89
2024/02/13 16:22:14;;;;;;;15.60;3.70;;;;;;;8.94;100.00;101467.50;5082302;28;20111;-89
2024/02/13 16:24:43;;;;;;;14.45;3.70;;;;;;;8.93;100.00;101465.69;5083645;28;20028;-89
2024/02/13 16:27:08;;;;;;;16.27;3.80;;;;;;;8.93;100.00;101470.97;5085161;28;20039;-89
2024/02/13 16:29:34;;;;;;;14.02;3.80;;;;;;;8.85;100.00;101473.44;5082126;28;20021;-89
2024/02/13 16:32:00;;;;;;;14.43;3.70;;;;;;;8.82;100.00;101473.34;5068032;28;20385;-85
2024/02/13 16:34:25;;;;;;;12.25;3.67;;;;;;;8.78;100.00;101471.53;5082419;28;20038;-87
2024/02/13 16:36:51;;;;;;;13.77;3.95;;;;;;;8.73;100.00;101479.31;5066142;28;20392;-78
2024/02/13 16:39:17;;;;;;;15.45;3.92;;;;;;;8.72;100.00;101477.56;5083232;28;20093;-74
2024/02/13 16:41:44;;;;;;;13.23;3.70;;;;;;;8.72;100.00;101480.19;5083017;28;20035;-72
2024/02/13 16:44:14;;;;;;;14.45;3.88;;;;;;;8.71;100.00;101481.06;5083958;28;20044;-70
2024/02/13 16:46:39;;;;;;;16.65;4.25;;;;;;;8.70;100.00;101483.66;5082929;28;20032;-71
2024/02/13 16:49:05;;;;;;;15.50;4.13;;;;;;;8.67;100.00;101475.69;5084734;28;20112;-74
2024/02/13 16:51:30;;;;;;;15.30;3.90;;;;;;;8.62;100.00;101480.84;5063404;28;20024;-72
2024/02/13 16:53:55;;;;;;;16.13;3.95;;;;;;;8.62;100.00;101477.31;5084769;28;20051;-78
2024/02/13 16:56:21;;;;;;;14.90;4.28;;;;;;;8.61;100.00;101478.19;5082477;28;20042;-79
2024/02/13 16:58:46;;;;;;;13.65;4.10;;;;;;;8.60;100.00;101477.28;5083357;28;20032;-79
2024/02/13 17:01:11;;;;;;;16.40;4.38;;;;;;;8.58;100.00;101478.09;5083788;28;20387;-76
2024/02/13 17:03:37;;;;;;;16.25;4.20;;;;;;;8.52;100.00;101478.88;5082144;28;20497;-73
2024/02/13 17:06:08;;;;;;;15.43;4.30;;;;;;;8.43;100.00;101478.59;5062941;28;20074;-77
2024/02/13 17:08:34;;;;;;;14.60;4.18;;;;;;;8.28;100.00;101479.13;5047395;28;20028;-77
2024/02/13 17:11:01;;;;;;;17.15;4.60;;;;;;;8.25;100.00;101482.59;5084713;28;20028;-77
2024/02/13 17:13:28;;;;;;;15.93;4.50;;;;;;;8.13;100.00;101491.09;5081555;28;20078;-74
2024/02/13 17:15:54;;;;;;;15.73;4.68;;;;;;;7.88;100.00;101483.41;5084133;28;20051;-74
2024/02/13 17:18:20;;;;;;;16.33;4.50;;;;;;;7.55;100.00;101489.59;5082106;28;20044;-79
2024/02/13 17:20:46;;;;;;;17.60;5.00;;;;;;;7.34;100.00;101488.16;5055467;28;20025;-89
2024/02/13 17:23:11;;;;;;;17.35;5.00;;;;;;;7.18;100.00;101492.09;5083825;28;20123;-87
2024/02/13 17:25:36;;;;;;;16.00;4.60;;;;;;;7.10;100.00;101485.72;5081987;28;20097;-69
2024/02/13 17:28:04;;;;;;;17.63;4.82;;;;;;;7.03;100.00;101492.50;5084877;28;20043;-69
2024/02/13 17:30:30;;;;;;;17.52;5.05;;;;;;;6.95;100.00;101494.94;5058807;28;20039;-69
2024/02/13 17:32:55;;;;;;;15.30;4.47;;;;;;;6.94;100.00;101492.25;5063234;28;20033;-70
2024/02/13 17:35:20;;;;;;;14.27;4.50;;;;;;;6.98;100.00;101497.63;5083449;28;20029;-71
2024/02/13 17:37:46;;;;;;;14.35;4.22;;;;;;;7.06;100.00;101495.25;5083245;28;20028;-89
2024/02/13 17:40:13;;;;;;;17.23;4.43;;;;;;;7.10;100.00;101498.84;5083033;28;20048;-84
2024/02/13 17:42:39;;;;;;;16.17;4.35;;;;;;;7.00;100.00;101496.81;5081627;28;20048;-85
2024/02/13 17:45:04;;;;;;;16.50;4.53;;;;;;;6.89;100.00;101488.63;5085252;28;20470;-85
2024/02/13 17:47:30;;;;;;;16.65;4.68;;;;;;;6.83;100.00;101491.94;5081868;28;20032;-81
2024/02/13 17:49:55;;;;;;;16.67;4.72;;;;;;;6.78;100.00;101489.16;5082952;28;20032;-80
2024/02/13 17:52:21;;;;;;;14.88;4.47;;;;;;;6.86;100.00;101489.41;5055065;28;20082;-85
2024/02/13 17:54:46;;;;;;;15.80;4.45;;;;;;;6.81;100.00;101498.88;5085000;28;20032;-88
2024/02/13 17:57:12;;;;;;;15.07;4.50;;;;;;;6.85;100.00;101492.88;5069146;28;20505;-86
2024/02/13 17:59:37;;;;;;;16.38;5.03;;;;;;;6.83;100.00;101486.69;5081866;28;20086;-79
2024/02/13 18:02:03;;;;;;;18.25;5.10;;;;;;;6.79;100.00;101487.44;5084710;28;20028;-71
2024/02/13 18:04:29;;;;;;;18.10;5.10;;;;;;;6.78;100.00;101493.53;5062620;28;20073;-71
2024/02/13 18:06:54;;;;;;;18.17;6.10;;;;;;;6.78;100.00;101493.53;5081209;28;20471;-73
2024/02/13 18:09:20;;;;;;;16.80;5.00;;;;;;;6.76;100.00;101498.75;5064910;28;20029;-77
2024/02/13 18:11:45;;;;;;;17.98;5.57;;;;;;;6.70;100.00;101495.03;5082698;28;20025;-75
2024/02/13 18:14:11;;;;;;;23.38;10.90;;;;;;;6.65;100.00;101492.25;5081640;28;20061;-79
2024/02/13 18:16:37;;;;;;;18.80;5.88;;;;;;;6.60;100.00;101488.63;5083403;28;20078;-78
2024/02/13 18:19:05;;;;;;;22.70;9.50;;;;;;;6.53;100.00;101479.66;5080997;28;20078;-72
2024/02/13 18:21:32;;;;;;;18.40;6.10;;;;;;;6.57;100.00;101488.53;5084389;28;20052;-78
2024/02/13 18:23:59;;;;;;;21.45;9.63;;;;;;;6.56;100.00;101486.72;5069542;28;20128;-70
2024/02/13 18:26:28;;;;;;;17.38;5.10;;;;;;;6.54;100.00;101484.06;5085179;28;20094;-71
2024/02/13 18:28:56;;;;;;;17.20;5.32;;;;;;;6.51;100.00;101475.19;5087404;28;20040;-75
2024/02/13 18:31:22;;;;;;;18.77;5.80;;;;;;;6.50;100.00;101479.56;5085144;28;20028;-74
2024/02/13 18:33:50;;;;;;;18.50;6.13;;;;;;;6.52;100.00;101474.34;5086370;28;20028;-74
2024/02/13 18:36:16;;;;;;;18.15;5.90;;;;;;;6.47;100.00;101466.31;5086382;28;20028;-75
2024/02/13 18:38:41;;;;;;;18.30;6.40;;;;;;;6.52;100.00;101469.09;5084970;28;20574;-81
2024/02/13 18:41:07;;;;;;;19.42;7.32;;;;;;;6.57;100.00;101478.03;5087652;28;20056;-78
2024/02/13 18:43:33;;;;;;;20.38;7.68;;;;;;;6.58;100.00;101474.53;5084456;28;20021;-80
2024/02/13 18:45:59;;;;;;;19.92;9.27;;;;;;;6.57;100.00;101471.03;5087880;28;20094;-79
2024/02/13 18:48:24;;;;;;;20.30;9.10;;;;;;;6.56;100.00;101474.47;5088658;28;20463;-75
2024/02/13 18:50:50;;;;;;;21.15;9.50;;;;;;;6.56;100.00;101473.59;5085840;28;20486;-73
2024/02/13 18:53:19;;;;;;;22.67;10.80;;;;;;;6.52;100.00;101467.34;5085853;28;20402;-71
2024/02/13 18:55:46;;;;;;;22.42;10.02;;;;;;;6.57;100.00;101476.28;5068611;28;20543;-71
2024/02/13 18:58:11;;;;;;;24.40;11.38;;;;;;;6.52;100.00;101471.72;5084897;28;20093;-71
2024/02/13 19:00:37;;;;;;;22.65;10.93;;;;;;;6.53;100.00;101456.00;5087290;28;20501;-72
2024/02/13 19:03:07;;;;;;;22.45;10.90;;;;;;;6.50;100.00;101439.28;5087532;28;20111;-70
2024/02/13 19:05:32;;;;;;;22.63;10.18;;;;;;;6.45;100.00;101441.72;5083562;28;20474;-80
2024/02/13 19:07:59;;;;;;;23.92;9.93;;;;;;;6.40;100.00;101443.34;5084085;28;20088;-81
2024/02/13 19:10:25;;;;;;;22.13;10.00;;;;;;;6.41;100.00;101450.38;5068864;28;20032;-71
2024/02/13 19:12:50;;;;;;;21.17;9.20;;;;;;;6.39;100.00;101454.69;5084816;28;20024;-70
2024/02/13 19:15:16;;;;;;;22.33;9.63;;;;;;;6.41;100.00;101446.00;5066993;28;20471;-70
2024/02/13 19:17:43;;;;;;;21.67;10.00;;;;;;;6.46;100.00;101446.16;5085873;28;20028;-71
2024/02/13 19:20:13;;;;;;;21.50;10.00;;;;;;;6.48;100.00;101440.94;5084882;28;20349;-71
2024/02/13 19:22:39;;;;;;;20.38;9.10;;;;;;;6.50;100.00;101439.28;5086266;28;20025;-76
2024/02/13 19:25:04;;;;;;;19.77;7.60;;;;;;;6.51;100.00;101430.53;5083730;28;20040;-73
2024/02/13 19:27:32;;;;;;;19.35;7.07;;;;;;;6.54;100.00;101428.91;5086782;28;20099;-76
2024/02/13 19:29:58;;;;;;;19.42;6.28;;;;;;;6.54;100.00;101427.97;5083363;28;20391;-78
2024/02/13 19:32:23;;;;;;;18.73;6.15;;;;;;;6.53;100.00;101424.47;5086029;28;20036;-78
2024/02/13 19:34:50;;;;;;;17.67;5.40;;;;;;;6.63;100.00;101418.66;5067997;28;20024;-75
2024/02/13 19:37:15;;;;;;;16.00;5.20;;;;;;;6.71;100.00;101407.47;5067663;28;20036;-86
2024/02/13 19:39:41;;;;;;;16.42;4.93;;;;;;;6.78;100.00;101404.19;5086317;28;20056;-87
2024/02/13 19:42:07;;;;;;;16.15;5.03;;;;;;;6.89;100.00;101399.25;5084266;28;20032;-84
2024/02/13 19:44:33;;;;;;;14.68;5.00;;;;;;;7.00;100.00;101396.91;5087292;28;20032;-87
2024/02/13 19:46:58;;;;;;;15.18;4.95;;;;;;;7.05;100.00;101397.91;5083122;28;20024;-87
2024/02/13 19:49:24;;;;;;;16.70;5.07;;;;;;;7.10;100.00;101388.44;5084428;28;20028;-88
2024/02/13 19:51:49;;;;;;;16.52;4.97;;;;;;;7.16;100.00;101391.22;5067352;28;20035;-70
2024/02/13 19:54:15;;;;;;;14.95;4.85;;;;;;;7.23;100.00;101384.38;5087092;28;20471;-76
2024/02/13 19:56:40;;;;;;;16.38;4.82;;;;;;;7.25;100.00;101370.44;5085974;28;20402;-78
2024/02/13 19:59:06;;;;;;;16.95;5.10;;;;;;;7.30;100.00;101368.81;5084149;28;20431;-71
2024/02/13 20:01:32;;;;;;;14.90;4.57;;;;;;;7.35;100.00;101373.31;5087136;28;20039;-73
2024/02/13 20:04:00;;;;;;;16.85;4.60;;;;;;;7.38;100.00;101368.13;5083584;28;20082;-73
2024/02/13 20:06:25;;;;;;;14.43;4.60;;;;;;;7.44;100.00;101363.00;5086199;28;20038;-81
2024/02/13 20:08:51;;;;;;;15.02;4.80;;;;;;;7.46;100.00;101353.44;5084274;28;20028;-75
2024/02/13 20:11:16;;;;;;;15.27;4.63;;;;;;;7.54;100.00;101357.13;5084593;28;20025;-70
2024/02/13 20:13:42;;;;;;;15.60;4.80;;;;;;;7.57;100.00;101359.84;5084967;28;20071;-71
2024/02/13 20:16:07;;;;;;;16.83;4.97;;;;;;;7.58;100.00;101364.25;5082377;28;20025;-70
2024/02/13 20:18:33;;;;;;;18.20;5.00;;;;;;;7.60;100.00;101365.19;5085770;28;20041;-72
2024/02/13 20:20:58;;;;;;;16.25;4.80;;;;;;;7.58;100.00;101353.72;5082545;28;20051;-80
2024/02/13 20:23:24;;;;;;;16.58;5.00;;;;;;;7.64;100.00;101353.84;5084707;28;20032;-79
2024/02/13 20:25:51;;;;;;;14.82;4.85;;;;;;;7.67;100.00;101351.34;5083435;28;20046;-79
2024/02/13 20:28:16;;;;;;;17.85;5.00;;;;;;;7.71;100.00;101356.66;5083647;28;20067;-79
2024/02/13 20:30:42;;;;;;;16.48;4.63;;;;;;;7.74;100.00;101354.09;5084241;28;20407;-71
2024/02/13 20:33:09;;;;;;;14.52;4.47;;;;;;;7.77;100.00;101338.38;5082284;28;20031;-70
2024/02/13 20:35:34;;;;;;;17.05;4.68;;;;;;;7.75;100.00;101348.88;5067396;28;20028;-73
2024/02/13 20:37:59;;;;;;;13.77;4.45;;;;;;;7.81;100.00;101361.28;5081532;28;20427;-70
2024/02/13 20:40:25;;;;;;;16.02;4.68;;;;;;;7.82;100.00;101352.53;5084410;28;20056;-70
2024/02/13 20:42:50;;;;;;;16.85;4.60;;;;;;;7.86;100.00;101359.66;5082371;28;20059;-71
2024/02/13 20:45:17;;;;;;;15.75;4.50;;;;;;;7.89;100.00;101364.09;5082931;28;20032;-72
2024/02/13 20:47:43;;;;;;;13.95;4.43;;;;;;;7.91;100.00;101350.13;5083916;28;20036;-71
2024/02/13 20:50:09;;;;;;;14.82;4.55;;;;;;;7.85;100.00;101340.34;5081815;28;20025;-74
2024/02/13 20:52:35;;;;;;;14.55;4.57;;;;;;;7.84;100.00;101348.19;5067022;28;20032;-70
2024/02/13 20:55:04;;;;;;;15.13;4.60;;;;;;;7.90;100.00;101340.44;5081537;28;20040;-71
2024/02/13 20:57:31;;;;;;;16.08;4.40;;;;;;;7.93;100.00;101340.50;5084666;28;20461;-73
2024/02/13 20:59:57;;;;;;;16.73;4.80;;;;;;;7.93;100.00;101344.91;5081739;28;20079;-71
2024/02/13 21:02:23;;;;;;;14.38;4.40;;;;;;;7.89;100.00;101338.66;5083911;28;20502;-71